航空天氣報告(METAR) 航空天氣預測(TAF) 其他聯結
怎樣閱讀航空天氣報告? 過往48小時航空天氣(METAR)報告
本月內所有航空天氣(METAR)報告
最新航空天氣報告(METAR)(香港國際機場發出)
地區編碼:VHHH

METAR VHHH 181700Z 16004KT 100V270 9999 FEW013 SCT025 29/26 Q1008 
NOSIG= 

最新航空天氣預測(TAF)(香港國際機場發出)
地區編碼:VHHH

TAF VHHH 181700Z 1818/1924 16010KT 9999 FEW015 SCT030 TX32/1906Z 
TN28/1822Z TN28/1922Z TEMPO 1818/1903 VRB05KT TEMPO 1821/1906 4000 
SHRA FEW010CB SCT025 TEMPO 1903/1910 24010KT TEMPO 1921/1924 4000 
SHRA FEW010CB SCT025= 

其他聯結

National Weather Service (NWS)

請選擇氣象中心地點:

最新METAR報告:

最新TAF報告:

香港地下天文台

地區編碼:VHHH (香港國際機場)

最新地面氣象分析報告 (每六小時更新一次)
最新METAR報告
最新TAF報告

Hong Kong Weather Graphics

地區編碼:VHHH (香港國際機場)

此網站將過往72小時的METAR報告繪成以下圖表。

氣溫
能見度
大氣氣壓
風向及風速

香港天文台

香港航空天氣預報
機場天氣報告(METAR/SPECI)
機場天氣預報(TAF)


如對本網頁有任何意見,歡迎電郵致webmaster@weatherland.org.hk